sensor_id;sensor_type;location;lat;lon;timestamp;P1;durP1;ratioP1;P2;durP2;ratioP2
70239;SDS011;57629;52.256;10.414;2022-09-13T00:00:20;2.78;;;1.58;;
70239;SDS011;57629;52.256;10.414;2022-09-13T00:01:22;2.53;;;1.60;;
70239;SDS011;57629;52.256;10.414;2022-09-13T00:02:23;2.50;;;1.73;;
70239;SDS011;57629;52.256;10.414;2022-09-13T00:03:23;3.28;;;1.60;;
70239;SDS011;57629;52.256;10.414;2022-09-13T00:04:24;2.33;;;1.33;;
70239;SDS011;57629;52.256;10.414;2022-09-13T00:05:25;3.37;;;1.50;;
70239;SDS011;57629;52.256;10.414;2022-09-13T00:06:26;4.47;;;1.52;;
70239;SDS011;57629;52.256;10.414;2022-09-13T00:07:26;3.70;;;1.40;;
70239;SDS011;57629;52.256;10.414;2022-09-13T00:08:27;4.30;;;1.65;;
70239;SDS011;57629;52.256;10.414;2022-09-13T00:09:28;3.33;;;1.20;;
70239;SDS011;57629;52.256;10.414;2022-09-13T00:10:28;3.60;;;1.50;;
70239;SDS011;57629;52.256;10.414;2022-09-13T00:11:29;2.72;;;1.52;;
70239;SDS011;57629;52.256;10.414;2022-09-13T00:12:30;2.50;;;1.47;;
70239;SDS011;57629;52.256;10.414;2022-09-13T00:13:31;2.50;;;1.50;;
70239;SDS011;57629;52.256;10.414;2022-09-13T00:14:31;4.22;;;1.88;;
70239;SDS011;57629;52.256;10.414;2022-09-13T00:15:32;2.50;;;1.70;;
70239;SDS011;57629;52.256;10.414;2022-09-13T00:16:35;2.30;;;1.30;;
70239;SDS011;57629;52.256;10.414;2022-09-13T00:17:35;2.53;;;1.55;;
70239;SDS011;57629;52.256;10.414;2022-09-13T00:18:36;3.37;;;1.80;;
70239;SDS011;57629;52.256;10.414;2022-09-13T00:19:36;2.85;;;1.60;;
70239;SDS011;57629;52.256;10.414;2022-09-13T00:20:37;2.87;;;1.83;;
70239;SDS011;57629;52.256;10.414;2022-09-13T00:21:38;4.10;;;1.63;;
70239;SDS011;57629;52.256;10.414;2022-09-13T00:22:39;3.05;;;1.52;;
70239;SDS011;57629;52.256;10.414;2022-09-13T00:23:42;2.40;;;1.53;;
70239;SDS011;57629;52.256;10.414;2022-09-13T00:24:43;2.70;;;1.90;;
70239;SDS011;57629;52.256;10.414;2022-09-13T00:25:44;2.60;;;1.60;;
70239;SDS011;57629;52.256;10.414;2022-09-13T00:26:44;2.33;;;1.53;;
70239;SDS011;57629;52.256;10.414;2022-09-13T00:27:45;2.67;;;1.33;;
70239;SDS011;57629;52.256;10.414;2022-09-13T00:28:47;5.17;;;1.67;;
70239;SDS011;57629;52.256;10.414;2022-09-13T00:29:49;2.40;;;1.50;;
70239;SDS011;57629;52.256;10.414;2022-09-13T00:30:49;2.40;;;1.40;;
70239;SDS011;57629;52.256;10.414;2022-09-13T00:31:51;2.50;;;1.47;;
70239;SDS011;57629;52.256;10.414;2022-09-13T00:32:52;3.03;;;1.40;;
70239;SDS011;57629;52.256;10.414;2022-09-13T00:33:53;2.35;;;1.40;;
70239;SDS011;57629;52.256;10.414;2022-09-13T00:34:54;2.93;;;1.30;;
70239;SDS011;57629;52.256;10.414;2022-09-13T00:35:54;2.95;;;1.58;;
70239;SDS011;57629;52.256;10.414;2022-09-13T00:36:55;2.33;;;1.52;;
70239;SDS011;57629;52.256;10.414;2022-09-13T00:37:57;2.33;;;1.70;;
70239;SDS011;57629;52.256;10.414;2022-09-13T00:38:59;3.20;;;1.70;;
70239;SDS011;57629;52.256;10.414;2022-09-13T00:40:00;2.15;;;1.30;;
70239;SDS011;57629;52.256;10.414;2022-09-13T00:41:02;2.83;;;1.63;;
70239;SDS011;57629;52.256;10.414;2022-09-13T00:42:03;2.22;;;1.00;;
70239;SDS011;57629;52.256;10.414;2022-09-13T00:43:04;2.40;;;1.60;;
70239;SDS011;57629;52.256;10.414;2022-09-13T00:45:39;2.80;;;1.80;;
70239;SDS011;57629;52.256;10.414;2022-09-13T00:46:41;3.28;;;1.80;;
70239;SDS011;57629;52.256;10.414;2022-09-13T00:47:46;2.30;;;1.58;;
70239;SDS011;57629;52.256;10.414;2022-09-13T00:48:50;2.93;;;1.60;;
70239;SDS011;57629;52.256;10.414;2022-09-13T00:49:55;3.28;;;1.40;;
70239;SDS011;57629;52.256;10.414;2022-09-13T00:50:59;2.70;;;1.65;;
70239;SDS011;57629;52.256;10.414;2022-09-13T00:52:02;2.53;;;1.55;;
70239;SDS011;57629;52.256;10.414;2022-09-13T00:53:06;2.50;;;1.42;;
70239;SDS011;57629;52.256;10.414;2022-09-13T00:54:10;2.60;;;1.45;;
70239;SDS011;57629;52.256;10.414;2022-09-13T00:55:14;2.50;;;1.50;;
70239;SDS011;57629;52.256;10.414;2022-09-13T00:56:21;3.17;;;1.45;;
70239;SDS011;57629;52.256;10.414;2022-09-13T00:57:27;3.05;;;1.50;;
70239;SDS011;57629;52.256;10.414;2022-09-13T00:58:31;2.65;;;1.40;;
70239;SDS011;57629;52.256;10.414;2022-09-13T00:59:36;2.40;;;1.60;;
70239;SDS011;57629;52.256;10.414;2022-09-13T01:00:42;2.47;;;1.48;;
70239;SDS011;57629;52.256;10.414;2022-09-13T01:01:45;2.60;;;1.80;;
70239;SDS011;57629;52.256;10.414;2022-09-13T01:02:50;3.35;;;1.90;;
70239;SDS011;57629;52.256;10.414;2022-09-13T01:03:54;2.70;;;1.60;;
70239;SDS011;57629;52.256;10.414;2022-09-13T01:04:55;2.38;;;1.30;;
70239;SDS011;57629;52.256;10.414;2022-09-13T01:05:56;2.70;;;1.50;;
70239;SDS011;57629;52.256;10.414;2022-09-13T01:06:59;2.40;;;1.50;;
70239;SDS011;57629;52.256;10.414;2022-09-13T01:08:03;3.08;;;1.73;;
70239;SDS011;57629;52.256;10.414;2022-09-13T01:09:09;2.22;;;1.67;;
70239;SDS011;57629;52.256;10.414;2022-09-13T01:10:11;3.40;;;1.60;;
70239;SDS011;57629;52.256;10.414;2022-09-13T01:11:13;2.37;;;1.50;;
70239;SDS011;57629;52.256;10.414;2022-09-13T01:12:24;2.43;;;1.40;;
70239;SDS011;57629;52.256;10.414;2022-09-13T01:13:32;4.38;;;1.65;;
70239;SDS011;57629;52.256;10.414;2022-09-13T01:14:35;2.30;;;1.50;;
70239;SDS011;57629;52.256;10.414;2022-09-13T01:15:36;2.67;;;1.70;;
70239;SDS011;57629;52.256;10.414;2022-09-13T01:16:37;2.45;;;1.70;;
70239;SDS011;57629;52.256;10.414;2022-09-13T01:17:37;2.80;;;1.63;;
70239;SDS011;57629;52.256;10.414;2022-09-13T01:18:40;2.65;;;1.48;;
70239;SDS011;57629;52.256;10.414;2022-09-13T01:19:40;2.67;;;1.70;;
70239;SDS011;57629;52.256;10.414;2022-09-13T01:20:45;2.70;;;1.65;;
70239;SDS011;57629;52.256;10.414;2022-09-13T01:22:26;2.63;;;1.50;;
70239;SDS011;57629;52.256;10.414;2022-09-13T01:24:14;2.57;;;1.70;;
70239;SDS011;57629;52.256;10.414;2022-09-13T01:25:44;3.38;;;1.65;;
70239;SDS011;57629;52.256;10.414;2022-09-13T01:27:22;2.30;;;1.70;;
70239;SDS011;57629;52.256;10.414;2022-09-13T01:30:11;2.58;;;1.50;;
70239;SDS011;57629;52.256;10.414;2022-09-13T01:31:15;3.10;;;1.88;;
70239;SDS011;57629;52.256;10.414;2022-09-13T01:32:26;2.90;;;1.67;;
70239;SDS011;57629;52.256;10.414;2022-09-13T01:33:38;2.28;;;1.75;;
70239;SDS011;57629;52.256;10.414;2022-09-13T01:34:53;3.00;;;1.88;;
70239;SDS011;57629;52.256;10.414;2022-09-13T01:36:07;2.65;;;1.65;;
70239;SDS011;57629;52.256;10.414;2022-09-13T01:37:28;2.20;;;1.40;;
70239;SDS011;57629;52.256;10.414;2022-09-13T01:38:38;2.22;;;1.50;;
70239;SDS011;57629;52.256;10.414;2022-09-13T01:39:52;3.05;;;1.88;;
70239;SDS011;57629;52.256;10.414;2022-09-13T01:41:04;3.08;;;1.80;;
70239;SDS011;57629;52.256;10.414;2022-09-13T01:42:13;2.53;;;1.52;;
70239;SDS011;57629;52.256;10.414;2022-09-13T01:43:29;3.70;;;1.80;;
70239;SDS011;57629;52.256;10.414;2022-09-13T01:44:43;2.97;;;1.70;;
70239;SDS011;57629;52.256;10.414;2022-09-13T01:45:59;2.30;;;1.80;;
70239;SDS011;57629;52.256;10.414;2022-09-13T01:47:05;2.38;;;1.42;;
70239;SDS011;57629;52.256;10.414;2022-09-13T01:48:17;2.30;;;1.50;;
70239;SDS011;57629;52.256;10.414;2022-09-13T01:49:24;2.50;;;1.80;;
70239;SDS011;57629;52.256;10.414;2022-09-13T01:50:34;2.50;;;1.63;;
70239;SDS011;57629;52.256;10.414;2022-09-13T01:51:41;3.35;;;2.00;;
70239;SDS011;57629;52.256;10.414;2022-09-13T01:52:51;2.38;;;1.73;;
70239;SDS011;57629;52.256;10.414;2022-09-13T01:53:57;2.47;;;1.73;;
70239;SDS011;57629;52.256;10.414;2022-09-13T01:55:12;2.70;;;2.03;;
70239;SDS011;57629;52.256;10.414;2022-09-13T01:56:21;2.50;;;1.67;;
70239;SDS011;57629;52.256;10.414;2022-09-13T01:57:27;3.40;;;1.70;;
70239;SDS011;57629;52.256;10.414;2022-09-13T01:58:34;2.50;;;1.60;;
70239;SDS011;57629;52.256;10.414;2022-09-13T01:59:42;2.17;;;1.48;;
70239;SDS011;57629;52.256;10.414;2022-09-13T02:00:50;2.30;;;1.50;;
70239;SDS011;57629;52.256;10.414;2022-09-13T02:01:59;3.97;;;1.70;;
70239;SDS011;57629;52.256;10.414;2022-09-13T02:03:04;2.53;;;1.80;;
70239;SDS011;57629;52.256;10.414;2022-09-13T02:04:09;3.60;;;2.10;;
70239;SDS011;57629;52.256;10.414;2022-09-13T02:05:13;2.50;;;1.80;;
70239;SDS011;57629;52.256;10.414;2022-09-13T02:06:19;1.98;;;1.20;;
70239;SDS011;57629;52.256;10.414;2022-09-13T02:07:23;2.65;;;1.90;;
70239;SDS011;57629;52.256;10.414;2022-09-13T02:08:31;2.70;;;1.70;;
70239;SDS011;57629;52.256;10.414;2022-09-13T02:09:37;2.63;;;1.85;;
70239;SDS011;57629;52.256;10.414;2022-09-13T02:10:41;2.38;;;1.58;;
70239;SDS011;57629;52.256;10.414;2022-09-13T02:11:47;3.37;;;1.87;;
70239;SDS011;57629;52.256;10.414;2022-09-13T02:12:51;2.13;;;1.30;;
70239;SDS011;57629;52.256;10.414;2022-09-13T02:13:55;2.63;;;1.60;;
70239;SDS011;57629;52.256;10.414;2022-09-13T02:15:02;2.60;;;1.80;;
70239;SDS011;57629;52.256;10.414;2022-09-13T02:16:08;3.28;;;1.77;;
70239;SDS011;57629;52.256;10.414;2022-09-13T02:17:17;2.55;;;1.77;;
70239;SDS011;57629;52.256;10.414;2022-09-13T02:18:22;2.90;;;1.92;;
70239;SDS011;57629;52.256;10.414;2022-09-13T02:19:28;2.38;;;1.65;;
70239;SDS011;57629;52.256;10.414;2022-09-13T02:20:34;2.60;;;1.80;;
70239;SDS011;57629;52.256;10.414;2022-09-13T02:21:38;2.28;;;1.35;;
70239;SDS011;57629;52.256;10.414;2022-09-13T02:22:42;2.67;;;1.90;;
70239;SDS011;57629;52.256;10.414;2022-09-13T02:23:48;2.58;;;1.70;;
70239;SDS011;57629;52.256;10.414;2022-09-13T02:24:52;2.40;;;1.70;;
70239;SDS011;57629;52.256;10.414;2022-09-13T02:26:01;2.38;;;1.35;;
70239;SDS011;57629;52.256;10.414;2022-09-13T02:27:06;2.33;;;1.40;;
70239;SDS011;57629;52.256;10.414;2022-09-13T02:28:10;2.80;;;1.70;;
70239;SDS011;57629;52.256;10.414;2022-09-13T02:29:15;2.58;;;1.45;;
70239;SDS011;57629;52.256;10.414;2022-09-13T02:30:18;2.72;;;1.50;;
70239;SDS011;57629;52.256;10.414;2022-09-13T02:31:20;3.13;;;1.60;;
70239;SDS011;57629;52.256;10.414;2022-09-13T02:32:29;2.70;;;1.58;;
70239;SDS011;57629;52.256;10.414;2022-09-13T02:33:34;2.37;;;1.60;;
70239;SDS011;57629;52.256;10.414;2022-09-13T02:34:38;2.92;;;1.77;;
70239;SDS011;57629;52.256;10.414;2022-09-13T02:35:44;2.67;;;1.70;;
70239;SDS011;57629;52.256;10.414;2022-09-13T02:36:50;2.90;;;1.60;;
70239;SDS011;57629;52.256;10.414;2022-09-13T02:37:56;3.20;;;2.30;;
70239;SDS011;57629;52.256;10.414;2022-09-13T02:39:04;2.60;;;1.80;;
70239;SDS011;57629;52.256;10.414;2022-09-13T02:40:12;2.80;;;1.95;;
70239;SDS011;57629;52.256;10.414;2022-09-13T02:41:18;3.00;;;1.98;;
70239;SDS011;57629;52.256;10.414;2022-09-13T02:42:24;3.00;;;1.90;;
70239;SDS011;57629;52.256;10.414;2022-09-13T02:43:30;2.42;;;1.90;;
70239;SDS011;57629;52.256;10.414;2022-09-13T02:44:35;3.73;;;2.00;;
70239;SDS011;57629;52.256;10.414;2022-09-13T02:45:40;2.53;;;1.75;;
70239;SDS011;57629;52.256;10.414;2022-09-13T02:46:49;3.13;;;2.08;;
70239;SDS011;57629;52.256;10.414;2022-09-13T02:48:02;2.75;;;2.00;;
70239;SDS011;57629;52.256;10.414;2022-09-13T02:49:10;2.40;;;1.67;;
70239;SDS011;57629;52.256;10.414;2022-09-13T02:50:23;2.60;;;2.00;;
70239;SDS011;57629;52.256;10.414;2022-09-13T02:51:34;2.67;;;1.73;;
70239;SDS011;57629;52.256;10.414;2022-09-13T02:52:44;3.08;;;2.10;;
70239;SDS011;57629;52.256;10.414;2022-09-13T02:53:50;2.60;;;1.85;;
70239;SDS011;57629;52.256;10.414;2022-09-13T02:54:56;2.50;;;1.60;;
70239;SDS011;57629;52.256;10.414;2022-09-13T02:56:02;3.53;;;2.00;;
70239;SDS011;57629;52.256;10.414;2022-09-13T02:57:12;2.83;;;1.92;;
70239;SDS011;57629;52.256;10.414;2022-09-13T02:58:18;2.80;;;1.92;;
70239;SDS011;57629;52.256;10.414;2022-09-13T02:59:22;2.75;;;2.17;;
70239;SDS011;57629;52.256;10.414;2022-09-13T03:00:23;3.22;;;1.70;;
70239;SDS011;57629;52.256;10.414;2022-09-13T03:01:24;2.60;;;1.92;;
70239;SDS011;57629;52.256;10.414;2022-09-13T03:02:26;2.53;;;1.90;;
70239;SDS011;57629;52.256;10.414;2022-09-13T03:03:32;3.25;;;2.22;;
70239;SDS011;57629;52.256;10.414;2022-09-13T03:04:33;2.90;;;2.03;;
70239;SDS011;57629;52.256;10.414;2022-09-13T03:05:34;2.53;;;1.90;;
70239;SDS011;57629;52.256;10.414;2022-09-13T03:06:36;2.47;;;1.90;;
70239;SDS011;57629;52.256;10.414;2022-09-13T03:07:38;2.83;;;1.83;;
70239;SDS011;57629;52.256;10.414;2022-09-13T03:08:39;3.38;;;2.05;;
70239;SDS011;57629;52.256;10.414;2022-09-13T03:09:41;2.88;;;2.10;;
70239;SDS011;57629;52.256;10.414;2022-09-13T03:10:47;2.70;;;1.77;;
70239;SDS011;57629;52.256;10.414;2022-09-13T03:12:00;2.57;;;2.00;;
70239;SDS011;57629;52.256;10.414;2022-09-13T03:14:43;3.35;;;1.80;;
70239;SDS011;57629;52.256;10.414;2022-09-13T03:15:52;2.92;;;2.03;;
70239;SDS011;57629;52.256;10.414;2022-09-13T03:17:09;2.95;;;2.00;;
70239;SDS011;57629;52.256;10.414;2022-09-13T03:18:16;3.03;;;2.03;;
70239;SDS011;57629;52.256;10.414;2022-09-13T03:19:35;2.97;;;1.92;;
70239;SDS011;57629;52.256;10.414;2022-09-13T03:20:46;2.80;;;1.95;;
70239;SDS011;57629;52.256;10.414;2022-09-13T03:22:07;2.70;;;1.70;;
70239;SDS011;57629;52.256;10.414;2022-09-13T03:23:33;2.58;;;1.73;;
70239;SDS011;57629;52.256;10.414;2022-09-13T03:24:43;2.93;;;2.10;;
70239;SDS011;57629;52.256;10.414;2022-09-13T03:25:58;2.72;;;1.85;;
70239;SDS011;57629;52.256;10.414;2022-09-13T03:27:16;2.88;;;1.92;;
70239;SDS011;57629;52.256;10.414;2022-09-13T03:28:23;3.20;;;2.03;;
70239;SDS011;57629;52.256;10.414;2022-09-13T03:29:37;2.90;;;2.22;;
70239;SDS011;57629;52.256;10.414;2022-09-13T03:30:41;2.45;;;1.80;;
70239;SDS011;57629;52.256;10.414;2022-09-13T03:31:49;2.65;;;1.63;;
70239;SDS011;57629;52.256;10.414;2022-09-13T03:33:02;2.55;;;1.90;;
70239;SDS011;57629;52.256;10.414;2022-09-13T03:34:07;3.80;;;2.30;;
70239;SDS011;57629;52.256;10.414;2022-09-13T03:35:16;2.97;;;1.90;;
70239;SDS011;57629;52.256;10.414;2022-09-13T03:36:25;2.40;;;1.70;;
70239;SDS011;57629;52.256;10.414;2022-09-13T03:37:31;2.72;;;2.13;;
70239;SDS011;57629;52.256;10.414;2022-09-13T03:38:39;3.05;;;1.92;;
70239;SDS011;57629;52.256;10.414;2022-09-13T03:39:46;3.33;;;2.08;;
70239;SDS011;57629;52.256;10.414;2022-09-13T03:40:50;2.55;;;1.92;;
70239;SDS011;57629;52.256;10.414;2022-09-13T03:41:56;2.80;;;2.08;;
70239;SDS011;57629;52.256;10.414;2022-09-13T03:43:02;2.90;;;2.15;;
70239;SDS011;57629;52.256;10.414;2022-09-13T03:44:10;2.70;;;2.10;;
70239;SDS011;57629;52.256;10.414;2022-09-13T03:45:13;3.00;;;2.22;;
70239;SDS011;57629;52.256;10.414;2022-09-13T03:46:17;2.92;;;2.00;;
70239;SDS011;57629;52.256;10.414;2022-09-13T03:47:22;3.50;;;2.10;;
70239;SDS011;57629;52.256;10.414;2022-09-13T03:48:26;2.60;;;1.90;;
70239;SDS011;57629;52.256;10.414;2022-09-13T03:49:28;3.65;;;2.10;;
70239;SDS011;57629;52.256;10.414;2022-09-13T03:50:32;3.15;;;2.38;;
70239;SDS011;57629;52.256;10.414;2022-09-13T03:51:34;2.88;;;2.30;;
70239;SDS011;57629;52.256;10.414;2022-09-13T03:52:35;3.03;;;2.20;;
70239;SDS011;57629;52.256;10.414;2022-09-13T03:53:36;3.38;;;2.42;;
70239;SDS011;57629;52.256;10.414;2022-09-13T03:54:42;3.00;;;2.03;;
70239;SDS011;57629;52.256;10.414;2022-09-13T03:55:43;3.03;;;2.20;;
70239;SDS011;57629;52.256;10.414;2022-09-13T03:58:04;2.78;;;1.98;;
70239;SDS011;57629;52.256;10.414;2022-09-13T03:59:05;3.15;;;2.20;;
70239;SDS011;57629;52.256;10.414;2022-09-13T04:00:06;2.83;;;2.20;;
70239;SDS011;57629;52.256;10.414;2022-09-13T04:01:08;3.53;;;1.92;;
70239;SDS011;57629;52.256;10.414;2022-09-13T04:02:09;2.80;;;2.00;;
70239;SDS011;57629;52.256;10.414;2022-09-13T04:03:10;2.78;;;2.05;;
70239;SDS011;57629;52.256;10.414;2022-09-13T04:04:11;2.78;;;2.20;;
70239;SDS011;57629;52.256;10.414;2022-09-13T04:05:12;3.53;;;2.38;;
70239;SDS011;57629;52.256;10.414;2022-09-13T04:06:14;2.90;;;2.20;;
70239;SDS011;57629;52.256;10.414;2022-09-13T04:07:15;2.83;;;2.20;;
70239;SDS011;57629;52.256;10.414;2022-09-13T04:08:17;3.15;;;2.30;;
70239;SDS011;57629;52.256;10.414;2022-09-13T04:09:17;3.30;;;2.25;;
70239;SDS011;57629;52.256;10.414;2022-09-13T04:10:18;3.03;;;2.23;;
70239;SDS011;57629;52.256;10.414;2022-09-13T04:11:19;2.72;;;2.00;;
70239;SDS011;57629;52.256;10.414;2022-09-13T04:12:19;2.37;;;1.70;;
70239;SDS011;57629;52.256;10.414;2022-09-13T04:13:20;2.95;;;2.20;;
70239;SDS011;57629;52.256;10.414;2022-09-13T04:14:21;2.97;;;2.17;;
70239;SDS011;57629;52.256;10.414;2022-09-13T04:15:21;3.35;;;2.72;;
70239;SDS011;57629;52.256;10.414;2022-09-13T04:16:22;3.33;;;2.40;;
70239;SDS011;57629;52.256;10.414;2022-09-13T04:17:22;3.70;;;2.10;;
70239;SDS011;57629;52.256;10.414;2022-09-13T04:18:23;3.10;;;2.10;;
70239;SDS011;57629;52.256;10.414;2022-09-13T04:19:24;2.90;;;2.05;;
70239;SDS011;57629;52.256;10.414;2022-09-13T04:20:25;2.58;;;2.10;;
70239;SDS011;57629;52.256;10.414;2022-09-13T04:21:27;2.83;;;2.07;;
70239;SDS011;57629;52.256;10.414;2022-09-13T04:22:27;2.47;;;1.70;;
70239;SDS011;57629;52.256;10.414;2022-09-13T04:23:28;3.10;;;2.10;;
70239;SDS011;57629;52.256;10.414;2022-09-13T04:24:29;3.27;;;2.30;;
70239;SDS011;57629;52.256;10.414;2022-09-13T04:25:30;2.70;;;1.95;;
70239;SDS011;57629;52.256;10.414;2022-09-13T04:26:30;3.10;;;2.33;;
70239;SDS011;57629;52.256;10.414;2022-09-13T04:27:31;2.80;;;2.20;;
70239;SDS011;57629;52.256;10.414;2022-09-13T04:28:32;3.78;;;2.08;;
70239;SDS011;57629;52.256;10.414;2022-09-13T04:29:32;2.80;;;2.00;;
70239;SDS011;57629;52.256;10.414;2022-09-13T04:30:33;2.40;;;1.80;;
70239;SDS011;57629;52.256;10.414;2022-09-13T04:31:33;2.80;;;2.17;;
70239;SDS011;57629;52.256;10.414;2022-09-13T04:32:35;3.40;;;2.28;;
70239;SDS011;57629;52.256;10.414;2022-09-13T04:33:35;3.00;;;2.05;;
70239;SDS011;57629;52.256;10.414;2022-09-13T04:34:36;3.30;;;2.57;;
70239;SDS011;57629;52.256;10.414;2022-09-13T04:35:36;2.95;;;2.25;;
70239;SDS011;57629;52.256;10.414;2022-09-13T04:36:39;4.27;;;2.67;;
70239;SDS011;57629;52.256;10.414;2022-09-13T04:37:40;3.40;;;2.20;;
70239;SDS011;57629;52.256;10.414;2022-09-13T04:38:40;3.40;;;2.65;;
70239;SDS011;57629;52.256;10.414;2022-09-13T04:39:41;2.70;;;2.17;;
70239;SDS011;57629;52.256;10.414;2022-09-13T04:40:41;2.90;;;2.53;;
70239;SDS011;57629;52.256;10.414;2022-09-13T04:41:42;2.90;;;2.40;;
70239;SDS011;57629;52.256;10.414;2022-09-13T04:42:44;3.17;;;2.35;;
70239;SDS011;57629;52.256;10.414;2022-09-13T04:43:47;3.30;;;2.40;;
70239;SDS011;57629;52.256;10.414;2022-09-13T04:44:48;3.35;;;2.30;;
70239;SDS011;57629;52.256;10.414;2022-09-13T04:45:49;3.20;;;2.20;;
70239;SDS011;57629;52.256;10.414;2022-09-13T04:46:50;2.70;;;2.13;;
70239;SDS011;57629;52.256;10.414;2022-09-13T04:47:51;3.00;;;2.30;;
70239;SDS011;57629;52.256;10.414;2022-09-13T04:48:52;3.10;;;2.30;;
70239;SDS011;57629;52.256;10.414;2022-09-13T04:49:52;3.35;;;2.60;;
70239;SDS011;57629;52.256;10.414;2022-09-13T04:50:53;3.70;;;2.38;;
70239;SDS011;57629;52.256;10.414;2022-09-13T04:52:02;2.80;;;2.17;;
70239;SDS011;57629;52.256;10.414;2022-09-13T04:53:02;3.43;;;2.60;;
70239;SDS011;57629;52.256;10.414;2022-09-13T04:54:03;3.78;;;2.22;;
70239;SDS011;57629;52.256;10.414;2022-09-13T04:55:04;3.20;;;2.67;;
70239;SDS011;57629;52.256;10.414;2022-09-13T04:56:05;3.50;;;2.65;;
70239;SDS011;57629;52.256;10.414;2022-09-13T04:57:06;3.23;;;2.30;;
70239;SDS011;57629;52.256;10.414;2022-09-13T04:58:07;3.22;;;2.60;;
70239;SDS011;57629;52.256;10.414;2022-09-13T04:59:07;2.90;;;2.30;;
70239;SDS011;57629;52.256;10.414;2022-09-13T05:00:09;3.15;;;2.67;;
70239;SDS011;57629;52.256;10.414;2022-09-13T05:01:10;2.72;;;2.00;;
70239;SDS011;57629;52.256;10.414;2022-09-13T05:02:11;2.80;;;2.10;;
70239;SDS011;57629;52.256;10.414;2022-09-13T05:03:12;3.05;;;2.30;;
70239;SDS011;57629;52.256;10.414;2022-09-13T05:04:12;3.80;;;2.30;;
70239;SDS011;57629;52.256;10.414;2022-09-13T05:05:13;2.95;;;2.45;;
70239;SDS011;57629;52.256;10.414;2022-09-13T05:06:14;2.67;;;2.00;;
70239;SDS011;57629;52.256;10.414;2022-09-13T05:07:17;3.33;;;2.45;;
70239;SDS011;57629;52.256;10.414;2022-09-13T05:08:18;3.15;;;2.50;;
70239;SDS011;57629;52.256;10.414;2022-09-13T05:09:18;3.05;;;2.38;;
70239;SDS011;57629;52.256;10.414;2022-09-13T05:10:19;3.20;;;2.37;;
70239;SDS011;57629;52.256;10.414;2022-09-13T05:11:19;3.45;;;2.20;;
70239;SDS011;57629;52.256;10.414;2022-09-13T05:12:20;3.00;;;2.20;;
70239;SDS011;57629;52.256;10.414;2022-09-13T05:13:21;3.53;;;2.45;;
70239;SDS011;57629;52.256;10.414;2022-09-13T05:14:22;3.80;;;2.90;;
70239;SDS011;57629;52.256;10.414;2022-09-13T05:15:22;3.97;;;2.20;;
70239;SDS011;57629;52.256;10.414;2022-09-13T05:16:23;3.03;;;2.47;;
70239;SDS011;57629;52.256;10.414;2022-09-13T05:17:25;2.97;;;2.10;;
70239;SDS011;57629;52.256;10.414;2022-09-13T05:18:25;3.10;;;2.50;;
70239;SDS011;57629;52.256;10.414;2022-09-13T05:19:27;3.90;;;2.20;;
70239;SDS011;57629;52.256;10.414;2022-09-13T05:20:27;3.30;;;2.13;;
70239;SDS011;57629;52.256;10.414;2022-09-13T05:21:28;3.20;;;2.40;;
70239;SDS011;57629;52.256;10.414;2022-09-13T05:22:30;3.17;;;2.53;;
70239;SDS011;57629;52.256;10.414;2022-09-13T05:23:31;3.50;;;2.13;;
70239;SDS011;57629;52.256;10.414;2022-09-13T05:24:31;2.83;;;2.30;;
70239;SDS011;57629;52.256;10.414;2022-09-13T05:25:32;3.80;;;2.45;;
70239;SDS011;57629;52.256;10.414;2022-09-13T05:26:33;2.93;;;2.40;;
70239;SDS011;57629;52.256;10.414;2022-09-13T05:27:33;3.08;;;2.47;;
70239;SDS011;57629;52.256;10.414;2022-09-13T05:28:34;3.00;;;2.30;;
70239;SDS011;57629;52.256;10.414;2022-09-13T05:29:36;3.13;;;2.08;;
70239;SDS011;57629;52.256;10.414;2022-09-13T05:30:36;3.33;;;2.40;;
70239;SDS011;57629;52.256;10.414;2022-09-13T05:31:37;3.30;;;2.20;;
70239;SDS011;57629;52.256;10.414;2022-09-13T05:32:40;3.00;;;2.47;;
70239;SDS011;57629;52.256;10.414;2022-09-13T05:33:41;2.97;;;2.40;;
70239;SDS011;57629;52.256;10.414;2022-09-13T05:34:42;2.95;;;2.40;;
70239;SDS011;57629;52.256;10.414;2022-09-13T05:35:42;3.30;;;2.47;;
70239;SDS011;57629;52.256;10.414;2022-09-13T05:36:43;3.00;;;2.37;;
70239;SDS011;57629;52.256;10.414;2022-09-13T05:37:45;3.28;;;2.42;;
70239;SDS011;57629;52.256;10.414;2022-09-13T05:38:48;3.30;;;2.50;;
70239;SDS011;57629;52.256;10.414;2022-09-13T05:39:48;4.00;;;2.50;;
70239;SDS011;57629;52.256;10.414;2022-09-13T05:40:52;3.30;;;2.28;;
70239;SDS011;57629;52.256;10.414;2022-09-13T05:41:53;2.63;;;2.00;;
70239;SDS011;57629;52.256;10.414;2022-09-13T05:42:54;3.07;;;2.27;;
70239;SDS011;57629;52.256;10.414;2022-09-13T05:43:54;3.70;;;2.45;;
70239;SDS011;57629;52.256;10.414;2022-09-13T05:44:55;3.33;;;2.53;;
70239;SDS011;57629;52.256;10.414;2022-09-13T05:45:59;3.00;;;2.30;;
70239;SDS011;57629;52.256;10.414;2022-09-13T05:47:00;3.37;;;2.70;;
70239;SDS011;57629;52.256;10.414;2022-09-13T05:48:01;3.38;;;2.38;;
70239;SDS011;57629;52.256;10.414;2022-09-13T05:49:02;3.13;;;2.45;;
70239;SDS011;57629;52.256;10.414;2022-09-13T05:50:03;3.70;;;2.70;;
70239;SDS011;57629;52.256;10.414;2022-09-13T05:51:04;3.10;;;2.40;;
70239;SDS011;57629;52.256;10.414;2022-09-13T05:52:06;3.00;;;2.40;;
70239;SDS011;57629;52.256;10.414;2022-09-13T05:53:08;3.03;;;2.40;;
70239;SDS011;57629;52.256;10.414;2022-09-13T05:54:10;3.13;;;2.35;;
70239;SDS011;57629;52.256;10.414;2022-09-13T05:55:11;4.27;;;2.60;;
70239;SDS011;57629;52.256;10.414;2022-09-13T05:56:12;3.35;;;2.47;;
70239;SDS011;57629;52.256;10.414;2022-09-13T05:57:15;3.05;;;2.70;;
70239;SDS011;57629;52.256;10.414;2022-09-13T05:58:15;3.93;;;2.70;;
70239;SDS011;57629;52.256;10.414;2022-09-13T05:59:16;3.40;;;2.42;;
70239;SDS011;57629;52.256;10.414;2022-09-13T06:00:16;3.43;;;2.40;;
70239;SDS011;57629;52.256;10.414;2022-09-13T06:01:18;2.80;;;2.17;;
70239;SDS011;57629;52.256;10.414;2022-09-13T06:02:19;3.63;;;2.25;;
70239;SDS011;57629;52.256;10.414;2022-09-13T06:03:20;3.03;;;2.28;;
70239;SDS011;57629;52.256;10.414;2022-09-13T06:04:21;2.87;;;2.17;;
70239;SDS011;57629;52.256;10.414;2022-09-13T06:05:22;3.10;;;2.30;;
70239;SDS011;57629;52.256;10.414;2022-09-13T06:06:23;3.10;;;2.53;;
70239;SDS011;57629;52.256;10.414;2022-09-13T06:07:24;3.10;;;2.50;;
70239;SDS011;57629;52.256;10.414;2022-09-13T06:08:27;3.10;;;2.47;;
70239;SDS011;57629;52.256;10.414;2022-09-13T06:09:30;3.33;;;2.70;;
70239;SDS011;57629;52.256;10.414;2022-09-13T06:10:31;3.13;;;2.30;;
70239;SDS011;57629;52.256;10.414;2022-09-13T06:11:31;3.22;;;2.35;;
70239;SDS011;57629;52.256;10.414;2022-09-13T06:12:32;3.00;;;2.30;;
70239;SDS011;57629;52.256;10.414;2022-09-13T06:13:33;3.10;;;2.30;;
70239;SDS011;57629;52.256;10.414;2022-09-13T06:14:34;3.40;;;2.30;;
70239;SDS011;57629;52.256;10.414;2022-09-13T06:15:34;2.83;;;2.27;;
70239;SDS011;57629;52.256;10.414;2022-09-13T06:16:35;3.10;;;2.20;;
70239;SDS011;57629;52.256;10.414;2022-09-13T06:17:35;4.03;;;2.50;;
70239;SDS011;57629;52.256;10.414;2022-09-13T06:18:36;3.45;;;2.22;;
70239;SDS011;57629;52.256;10.414;2022-09-13T06:19:37;3.17;;;2.30;;
70239;SDS011;57629;52.256;10.414;2022-09-13T06:20:37;2.90;;;2.13;;
70239;SDS011;57629;52.256;10.414;2022-09-13T06:21:38;3.75;;;2.47;;
70239;SDS011;57629;52.256;10.414;2022-09-13T06:22:39;3.13;;;2.63;;
70239;SDS011;57629;52.256;10.414;2022-09-13T06:23:41;3.30;;;2.38;;
70239;SDS011;57629;52.256;10.414;2022-09-13T06:24:42;3.93;;;2.80;;
70239;SDS011;57629;52.256;10.414;2022-09-13T06:25:42;3.03;;;2.42;;